createdAt,value
2019-05-06T00:02:21.448Z,64.78
2019-05-06T00:04:48.331Z,64.97
2019-05-06T00:07:14.976Z,64.73
2019-05-06T00:09:44.077Z,64.82
2019-05-06T00:12:12.044Z,65.98
2019-05-06T00:14:38.937Z,65.47
2019-05-06T00:17:05.933Z,65.57
2019-05-06T00:19:34.126Z,65.46
2019-05-06T00:22:01.017Z,65.30
2019-05-06T00:24:29.724Z,65.99
2019-05-06T00:27:14.117Z,66.65
2019-05-06T00:29:43.903Z,66.15
2019-05-06T00:32:11.866Z,65.67
2019-05-06T00:34:38.760Z,65.24
2019-05-06T00:37:07.411Z,65.46
2019-05-06T00:39:36.016Z,66.06
2019-05-06T00:42:04.929Z,66.46
2019-05-06T00:44:32.139Z,66.16
2019-05-06T00:46:58.882Z,66.36
2019-05-06T00:49:25.525Z,66.37
2019-05-06T00:51:52.291Z,67.32
2019-05-06T00:54:24.763Z,67.49
2019-05-06T00:56:54.138Z,67.92
2019-05-06T00:59:21.104Z,67.32
2019-05-06T01:01:48.089Z,67.21
2019-05-06T01:04:15.090Z,67.30
2019-05-06T01:06:43.898Z,67.15
2019-05-06T01:09:14.088Z,67.41
2019-05-06T01:11:41.545Z,68.29
2019-05-06T01:14:10.211Z,68.82
2019-05-06T01:16:37.192Z,68.42
2019-05-06T01:19:04.667Z,67.96
2019-05-06T01:21:34.100Z,67.38
2019-05-06T01:24:00.736Z,67.28
2019-05-06T01:26:27.847Z,66.97
2019-05-06T01:28:56.331Z,67.33
2019-05-06T01:31:24.692Z,67.62
2019-05-06T01:33:53.533Z,68.00
2019-05-06T01:36:21.226Z,68.07
2019-05-06T01:38:54.024Z,68.36
2019-05-06T01:41:24.383Z,68.37
2019-05-06T01:43:51.609Z,68.61
2019-05-06T01:46:18.777Z,68.03
2019-05-06T01:48:48.080Z,67.83
2019-05-06T01:51:16.899Z,68.03
2019-05-06T01:53:44.849Z,67.75
2019-05-06T01:56:11.860Z,68.47
2019-05-06T01:58:38.731Z,68.38
2019-05-06T02:01:05.883Z,68.51
2019-05-06T02:03:34.701Z,68.49
2019-05-06T02:06:01.691Z,67.94
2019-05-06T02:08:28.872Z,67.92
2019-05-06T02:10:55.725Z,68.52
2019-05-06T02:13:23.798Z,69.64
2019-05-06T02:15:51.010Z,69.17
2019-05-06T02:18:19.715Z,69.66
2019-05-06T02:20:47.734Z,69.90
2019-05-06T02:23:16.460Z,69.83
2019-05-06T02:25:45.083Z,69.87
2019-05-06T02:28:11.886Z,69.99
2019-05-06T02:30:46.919Z,70.56
2019-05-06T02:33:19.418Z,70.10
2019-05-06T02:35:57.211Z,69.81
2019-05-06T02:38:39.131Z,69.63
2019-05-06T02:40:57.439Z,69.99
2019-05-06T02:43:25.557Z,70.47
2019-05-06T02:45:53.237Z,70.02
2019-05-06T02:48:38.675Z,70.04
2019-05-06T02:51:07.711Z,70.10
2019-05-06T02:53:34.717Z,69.50
2019-05-06T02:56:04.127Z,69.55
2019-05-06T02:58:33.020Z,69.31
2019-05-06T03:01:03.199Z,68.93
2019-05-06T03:03:28.089Z,69.48
2019-05-06T03:05:54.757Z,69.89
2019-05-06T03:08:23.698Z,70.16
2019-05-06T03:10:53.068Z,69.96
2019-05-06T03:13:19.198Z,69.83
2019-05-06T03:15:46.139Z,69.81
2019-05-06T03:18:14.837Z,70.17
2019-05-06T03:20:45.139Z,70.56
2019-05-06T03:23:16.478Z,70.65
2019-05-06T03:25:45.153Z,70.67
2019-05-06T03:28:13.286Z,70.59
2019-05-06T03:30:45.205Z,70.53
2019-05-06T03:35:56.464Z,69.90
2019-05-06T03:38:06.347Z,69.77
2019-05-06T03:40:36.655Z,70.12
2019-05-06T03:43:03.000Z,70.04
2019-05-06T03:45:48.189Z,69.63
2019-05-06T03:48:16.968Z,70.30
2019-05-06T03:50:44.129Z,70.52
2019-05-06T03:53:13.795Z,70.28
2019-05-06T03:55:46.527Z,70.42
2019-05-06T03:58:13.375Z,70.40
2019-05-06T04:00:43.797Z,70.23
2019-05-06T04:03:13.763Z,70.55
2019-05-06T04:05:39.531Z,70.84
2019-05-06T04:08:07.081Z,71.66
2019-05-06T04:10:36.974Z,71.12
2019-05-06T04:13:04.141Z,72.87
2019-05-06T04:15:34.218Z,73.25
2019-05-06T04:18:08.862Z,73.90
2019-05-06T04:20:43.706Z,74.22
2019-05-06T04:23:15.489Z,74.16
2019-05-06T04:25:47.307Z,74.12
2019-05-06T04:28:16.147Z,74.90
2019-05-06T04:30:43.039Z,75.76
2019-05-06T04:33:14.120Z,76.75
2019-05-06T04:35:39.005Z,77.21
2019-05-06T04:38:05.752Z,77.02
2019-05-06T04:40:33.715Z,76.77
2019-05-06T04:43:03.370Z,77.19
2019-05-06T04:45:29.212Z,76.58
2019-05-06T04:47:56.136Z,76.18
2019-05-06T04:50:24.236Z,75.29
2019-05-06T04:53:05.398Z,71.27
2019-05-06T04:55:34.151Z,66.04
2019-05-06T04:58:04.021Z,62.02
2019-05-06T05:00:33.339Z,59.10
2019-05-06T05:03:02.859Z,58.93
2019-05-06T05:05:29.201Z,57.23
2019-05-06T05:07:55.984Z,56.87
2019-05-06T05:10:27.808Z,59.47
2019-05-06T05:12:57.930Z,58.11
2019-05-06T05:15:43.716Z,54.00
2019-05-06T05:18:18.630Z,50.61
2019-05-06T05:20:46.732Z,52.64
2019-05-06T05:23:13.956Z,51.93
2019-05-06T05:25:42.545Z,51.10
2019-05-06T05:28:10.408Z,54.52
2019-05-06T05:30:37.775Z,56.42
2019-05-06T05:33:04.731Z,53.40
2019-05-06T05:35:32.182Z,51.81
2019-05-06T05:37:59.437Z,49.42
2019-05-06T05:40:27.476Z,51.46
2019-05-06T05:42:56.328Z,54.02
2019-05-06T05:45:23.429Z,50.10
2019-05-06T05:47:52.265Z,48.75
2019-05-06T05:50:22.831Z,49.49
2019-05-06T05:52:51.977Z,48.63
2019-05-06T05:55:21.469Z,46.28
2019-05-06T05:57:49.216Z,49.10
2019-05-06T06:00:18.099Z,49.76
2019-05-06T06:02:45.713Z,45.88
2019-05-06T06:05:13.485Z,48.71
2019-05-06T06:07:42.214Z,50.32
2019-05-06T06:10:17.954Z,52.40
2019-05-06T06:12:46.679Z,53.53
2019-05-06T06:15:32.805Z,53.19
2019-05-06T06:18:18.665Z,54.30
2019-05-06T06:20:48.302Z,52.02
2019-05-06T06:23:17.574Z,48.21
2019-05-06T06:25:46.756Z,47.77
2019-05-06T06:28:14.664Z,49.32
2019-05-06T06:30:58.775Z,49.35
2019-05-06T06:33:26.797Z,49.17
2019-05-06T06:35:56.541Z,49.36
2019-05-06T06:38:25.447Z,48.27
2019-05-06T06:40:55.501Z,49.93
2019-05-06T06:43:22.996Z,48.74
2019-05-06T06:45:49.984Z,48.61
2019-05-06T06:48:17.047Z,48.34
2019-05-06T06:50:45.190Z,47.17
2019-05-06T06:53:12.381Z,47.68
2019-05-06T06:55:42.576Z,49.07
2019-05-06T06:58:23.837Z,47.13
2019-05-06T07:00:53.386Z,46.50
2019-05-06T07:03:25.063Z,46.40
2019-05-06T07:05:59.641Z,47.06
2019-05-06T07:08:34.885Z,42.25
2019-05-06T07:10:55.488Z,38.55
2019-05-06T07:13:23.203Z,35.75
2019-05-06T07:15:51.979Z,33.20
2019-05-06T07:18:19.086Z,32.45
2019-05-06T07:21:03.302Z,32.21
2019-05-06T07:23:33.142Z,31.26
2019-05-06T07:26:02.852Z,29.09
2019-05-06T07:28:29.391Z,29.67
2019-05-06T07:30:56.384Z,29.33
2019-05-06T07:33:23.214Z,33.59
2019-05-06T07:35:52.637Z,34.16
2019-05-06T07:38:18.813Z,34.40
2019-05-06T07:40:47.494Z,38.66
2019-05-06T07:43:33.767Z,33.00
2019-05-06T07:46:18.559Z,35.61
2019-05-06T07:48:45.628Z,33.60
2019-05-06T07:51:12.544Z,32.50
2019-05-06T07:53:40.114Z,30.04
2019-05-06T07:56:07.058Z,30.20
2019-05-06T07:58:33.903Z,28.66
2019-05-06T08:01:02.639Z,27.58
2019-05-06T08:03:29.295Z,27.17
2019-05-06T08:05:58.771Z,27.35
2019-05-06T08:08:25.988Z,27.56
2019-05-06T08:10:52.965Z,30.05
2019-05-06T08:13:22.475Z,28.35
2019-05-06T08:15:48.729Z,25.62
2019-05-06T08:18:15.636Z,27.40
2019-05-06T08:20:42.822Z,28.33
2019-05-06T08:23:17.409Z,27.54
2019-05-06T08:25:46.045Z,29.37
2019-05-06T08:28:13.385Z,30.57
2019-05-06T08:30:42.867Z,31.15
2019-05-06T08:33:09.475Z,29.59
2019-05-06T08:35:36.299Z,27.71
2019-05-06T08:38:03.570Z,28.53
2019-05-06T08:40:31.804Z,28.39
2019-05-06T08:42:59.205Z,28.99
2019-05-06T08:45:26.206Z,28.80
2019-05-06T08:47:52.993Z,27.29
2019-05-06T08:50:24.386Z,29.03
2019-05-06T08:52:56.207Z,28.77
2019-05-06T08:55:32.575Z,29.05
2019-05-06T08:57:59.720Z,26.15
2019-05-06T09:00:27.182Z,25.09
2019-05-06T09:02:54.058Z,25.98
2019-05-06T09:05:22.351Z,25.69
2019-05-06T09:07:49.262Z,26.97
2019-05-06T09:10:16.290Z,25.59
2019-05-06T09:12:43.339Z,27.16
2019-05-06T09:15:12.430Z,28.22
2019-05-06T09:17:38.748Z,28.06
2019-05-06T09:20:05.647Z,29.29
2019-05-06T09:22:32.761Z,29.11
2019-05-06T09:24:59.408Z,28.00
2019-05-06T09:27:28.036Z,28.21
2019-05-06T09:29:55.142Z,27.20
2019-05-06T09:32:24.048Z,30.26
2019-05-06T09:34:55.500Z,27.62
2019-05-06T09:37:23.937Z,26.02
2019-05-06T09:39:53.215Z,25.77
2019-05-06T09:42:19.880Z,27.60
2019-05-06T09:44:50.285Z,27.12
2019-05-06T09:47:22.945Z,24.43
2019-05-06T09:49:49.789Z,25.71
2019-05-06T09:52:16.895Z,23.74
2019-05-06T09:54:48.456Z,25.93
2019-05-06T09:57:26.462Z,25.42
2019-05-06T09:59:53.439Z,24.25
2019-05-06T10:02:22.994Z,25.22
2019-05-06T10:04:52.213Z,27.74
2019-05-06T10:07:19.461Z,27.51
2019-05-06T10:09:46.397Z,27.63
2019-05-06T10:12:14.464Z,25.49
2019-05-06T10:14:43.257Z,24.06
2019-05-06T10:17:13.006Z,25.05
2019-05-06T10:19:39.409Z,25.39
2019-05-06T10:22:06.173Z,26.67
2019-05-06T10:24:33.100Z,27.46
2019-05-06T10:26:59.841Z,28.05
2019-05-06T10:29:35.234Z,27.43
2019-05-06T10:32:06.805Z,28.73
2019-05-06T10:34:33.594Z,30.39
2019-05-06T10:37:15.270Z,27.30
2019-05-06T10:39:38.585Z,28.04
2019-05-06T10:42:13.474Z,27.92
2019-05-06T10:44:48.055Z,23.85
2019-05-06T10:47:14.923Z,22.94
2019-05-06T10:49:42.262Z,25.07
2019-05-06T10:52:12.826Z,23.55
2019-05-06T10:54:42.125Z,23.48
2019-05-06T10:57:26.942Z,26.51
2019-05-06T10:59:55.061Z,25.84
2019-05-06T11:02:27.690Z,25.78
2019-05-06T11:04:55.247Z,27.93
2019-05-06T11:07:31.806Z,26.49
2019-05-06T11:09:53.274Z,26.45
2019-05-06T11:12:23.432Z,28.22
2019-05-06T11:14:53.260Z,27.44
2019-05-06T11:17:22.718Z,28.30
2019-05-06T11:19:50.238Z,28.85
2019-05-06T11:22:21.198Z,29.27
2019-05-06T11:24:47.412Z,28.63
2019-05-06T11:27:27.724Z,28.12
2019-05-06T11:29:46.107Z,29.26
2019-05-06T11:32:27.194Z,29.06
2019-05-06T11:35:03.882Z,27.89
2019-05-06T11:37:45.979Z,29.15
2019-05-06T11:40:03.521Z,28.97
2019-05-06T11:42:35.055Z,29.42
2019-05-06T11:45:03.720Z,29.68
2019-05-06T11:47:32.443Z,30.45
2019-05-06T11:50:02.503Z,30.71
2019-05-06T11:52:29.841Z,30.45
2019-05-06T11:54:58.819Z,29.94
2019-05-06T11:57:27.328Z,29.96
2019-05-06T11:59:55.401Z,29.57
2019-05-06T12:02:24.473Z,30.12
2019-05-06T12:04:52.774Z,29.36
2019-05-06T12:07:24.150Z,28.58
2019-05-06T12:09:50.008Z,29.36
2019-05-06T12:12:17.581Z,28.68
2019-05-06T12:14:45.163Z,28.48
2019-05-06T12:17:12.907Z,28.71
2019-05-06T12:19:40.563Z,29.43
2019-05-06T12:22:12.461Z,29.67
2019-05-06T12:24:39.505Z,29.65
2019-05-06T12:27:07.709Z,27.82
2019-05-06T12:29:38.016Z,26.88
2019-05-06T12:32:24.956Z,26.78
2019-05-06T12:34:52.505Z,26.86
2019-05-06T12:37:22.251Z,26.78
2019-05-06T12:39:53.344Z,26.67
2019-05-06T12:42:23.183Z,25.82
2019-05-06T12:44:52.995Z,26.19
2019-05-06T12:47:29.227Z,27.29
2019-05-06T12:49:57.344Z,26.57
2019-05-06T12:52:25.131Z,28.05
2019-05-06T12:54:56.305Z,28.49
2019-05-06T12:57:23.655Z,29.10
2019-05-06T12:59:53.152Z,29.17
2019-05-06T13:02:23.549Z,29.29
2019-05-06T13:04:57.624Z,30.05
2019-05-06T13:07:21.999Z,30.86
2019-05-06T13:09:49.685Z,31.05
2019-05-06T13:12:19.196Z,31.25
2019-05-06T13:14:46.615Z,31.79
2019-05-06T13:17:15.879Z,30.33
2019-05-06T13:19:43.104Z,30.57
2019-05-06T13:22:13.447Z,30.43
2019-05-06T13:24:41.263Z,31.23
2019-05-06T13:27:12.596Z,30.39
2019-05-06T13:29:39.877Z,30.44
2019-05-06T13:32:09.576Z,30.32
2019-05-06T13:34:37.034Z,30.76
2019-05-06T13:37:04.732Z,30.50
2019-05-06T13:39:33.255Z,30.50
2019-05-06T13:42:00.969Z,29.83
2019-05-06T13:44:28.263Z,29.40
2019-05-06T13:46:55.565Z,29.62
2019-05-06T13:49:27.582Z,30.01
2019-05-06T13:52:08.342Z,30.01
2019-05-06T13:54:35.801Z,29.80
2019-05-06T13:57:03.253Z,30.57
2019-05-06T13:59:34.682Z,30.63
2019-05-06T14:02:18.928Z,30.72
2019-05-06T14:04:47.022Z,31.49
2019-05-06T14:07:14.990Z,30.77
2019-05-06T14:09:43.704Z,31.00
2019-05-06T14:12:11.740Z,31.83
2019-05-06T14:14:39.173Z,32.78
2019-05-06T14:17:06.756Z,31.78
2019-05-06T14:19:34.747Z,29.63
2019-05-06T14:22:02.964Z,27.69
2019-05-06T14:24:32.800Z,28.55
2019-05-06T14:27:02.646Z,29.62
2019-05-06T14:29:32.991Z,29.59
2019-05-06T14:32:02.254Z,29.90
2019-05-06T14:34:29.768Z,30.08
2019-05-06T14:36:56.897Z,30.02
2019-05-06T14:39:43.423Z,30.29
2019-05-06T14:41:56.718Z,30.41
2019-05-06T14:44:24.465Z,30.05
2019-05-06T14:47:05.812Z,30.19
2019-05-06T14:49:34.295Z,31.06
2019-05-06T14:52:02.642Z,30.44
2019-05-06T14:54:33.012Z,30.04
2019-05-06T14:57:04.914Z,31.39
2019-05-06T14:59:33.034Z,31.39
2019-05-06T15:02:02.477Z,30.67
2019-05-06T15:04:32.266Z,30.15
2019-05-06T15:06:59.260Z,29.68
2019-05-06T15:09:27.134Z,29.38
2019-05-06T15:11:55.149Z,29.33
2019-05-06T15:14:22.849Z,30.14
2019-05-06T15:16:52.778Z,29.05
2019-05-06T15:19:22.565Z,29.53
2019-05-06T15:21:49.505Z,28.96
2019-05-06T15:24:20.824Z,29.53
2019-05-06T15:26:45.963Z,29.85
2019-05-06T15:29:12.849Z,30.11
2019-05-06T15:31:42.084Z,30.04
2019-05-06T15:34:12.962Z,30.98
2019-05-06T15:36:44.334Z,30.69
2019-05-06T15:39:13.103Z,30.34
2019-05-06T15:41:42.610Z,29.79
2019-05-06T15:44:09.484Z,30.74
2019-05-06T15:46:37.753Z,30.10
2019-05-06T15:49:04.748Z,29.75
2019-05-06T15:51:34.737Z,29.46
2019-05-06T15:54:02.695Z,29.20
2019-05-06T15:56:32.751Z,28.54
2019-05-06T15:58:59.659Z,29.04
2019-05-06T16:01:26.619Z,28.62
2019-05-06T16:03:53.457Z,29.12
2019-05-06T16:06:22.806Z,29.63
2019-05-06T16:08:49.632Z,29.47
2019-05-06T16:11:16.634Z,29.47
2019-05-06T16:13:45.094Z,30.36
2019-05-06T16:16:12.332Z,29.66
2019-05-06T16:18:39.178Z,29.85
2019-05-06T16:21:06.159Z,29.84
2019-05-06T16:23:35.063Z,30.23
2019-05-06T16:26:03.013Z,31.37
2019-05-06T16:28:30.425Z,31.53
2019-05-06T16:30:57.422Z,31.77
2019-05-06T16:33:24.397Z,31.47
2019-05-06T16:35:52.362Z,31.60
2019-05-06T16:38:19.360Z,31.74
2019-05-06T16:40:45.890Z,31.59
2019-05-06T16:43:13.790Z,31.33
2019-05-06T16:45:42.837Z,31.80
2019-05-06T16:48:09.657Z,31.68
2019-05-06T16:50:36.619Z,31.35
2019-05-06T16:53:04.693Z,31.40
2019-05-06T16:55:52.704Z,31.88
2019-05-06T16:58:22.292Z,31.98
2019-05-06T17:00:52.384Z,31.32
2019-05-06T17:03:23.135Z,31.59
2019-05-06T17:06:04.027Z,31.89
2019-05-06T17:08:35.957Z,32.02
2019-05-06T17:10:59.684Z,31.93
2019-05-06T17:13:26.668Z,31.81
2019-05-06T17:15:53.882Z,31.89
2019-05-06T17:18:22.599Z,31.44
2019-05-06T17:20:49.987Z,31.34
2019-05-06T17:23:16.941Z,30.66
2019-05-06T17:25:44.228Z,29.87
2019-05-06T17:28:15.817Z,30.08
2019-05-06T17:30:51.661Z,30.58
2019-05-06T17:33:33.541Z,30.06
2019-05-06T17:36:02.935Z,30.35
2019-05-06T17:38:32.203Z,30.75
2019-05-06T17:40:59.972Z,29.88
2019-05-06T17:43:27.146Z,30.64
2019-05-06T17:46:01.391Z,30.84
2019-05-06T17:48:29.278Z,31.63
2019-05-06T17:51:13.918Z,31.48
2019-05-06T17:53:42.991Z,31.50
2019-05-06T17:56:12.376Z,31.97
2019-05-06T17:58:39.159Z,32.19
2019-05-06T18:01:07.349Z,31.60
2019-05-06T18:03:34.535Z,32.63
2019-05-06T18:06:07.062Z,31.97
2019-05-06T18:08:30.172Z,32.34
2019-05-06T18:10:57.238Z,33.38
2019-05-06T18:13:23.982Z,32.78
2019-05-06T18:15:52.912Z,32.76
2019-05-06T18:18:21.469Z,33.00
2019-05-06T18:20:48.478Z,33.33
2019-05-06T18:23:15.297Z,34.47
2019-05-06T18:25:43.116Z,33.81
2019-05-06T18:28:12.125Z,33.94
2019-05-06T18:30:39.951Z,33.95
2019-05-06T18:33:07.067Z,34.54
2019-05-06T18:35:34.132Z,35.15
2019-05-06T18:38:02.962Z,34.80
2019-05-06T18:40:33.038Z,35.32
2019-05-06T18:42:58.988Z,36.23
2019-05-06T18:45:26.236Z,37.86
2019-05-06T18:47:53.217Z,36.93
2019-05-06T18:50:21.980Z,36.70
2019-05-06T18:52:52.823Z,36.86
2019-05-06T18:55:22.200Z,37.11
2019-05-06T18:57:48.440Z,37.17
2019-05-06T19:00:15.599Z,37.80
2019-05-06T19:02:42.459Z,38.15
2019-05-06T19:05:13.077Z,38.48
2019-05-06T19:07:40.137Z,38.64
2019-05-06T19:10:12.900Z,38.71
2019-05-06T19:12:41.544Z,38.87
2019-05-06T19:15:08.698Z,39.29
2019-05-06T19:17:36.009Z,39.32
2019-05-06T19:20:03.425Z,39.25
2019-05-06T19:22:32.300Z,39.44
2019-05-06T19:25:19.459Z,39.48
2019-05-06T19:27:46.638Z,40.02
2019-05-06T19:30:13.972Z,39.81
2019-05-06T19:32:43.304Z,40.01
2019-05-06T19:35:09.908Z,39.97
2019-05-06T19:37:38.524Z,40.12
2019-05-06T19:40:05.469Z,40.30
2019-05-06T19:42:43.670Z,40.67
2019-05-06T19:45:02.500Z,40.73
2019-05-06T19:47:31.960Z,40.95
2019-05-06T19:49:59.308Z,41.54
2019-05-06T19:52:26.092Z,41.63
2019-05-06T19:54:53.295Z,41.81
2019-05-06T19:57:20.188Z,42.41
2019-05-06T19:59:47.035Z,42.24
2019-05-06T20:02:14.409Z,42.24
2019-05-06T20:04:44.369Z,42.36
2019-05-06T20:07:22.846Z,42.21
2019-05-06T20:10:03.849Z,42.27
2019-05-06T20:12:43.462Z,42.37
2019-05-06T20:15:28.773Z,42.55
2019-05-06T20:17:56.671Z,42.79
2019-05-06T20:20:24.800Z,42.81
2019-05-06T20:22:52.013Z,42.85
2019-05-06T20:25:19.288Z,42.87
2019-05-06T20:27:47.020Z,43.41
2019-05-06T20:30:14.079Z,43.56
2019-05-06T20:32:42.523Z,43.60
2019-05-06T20:35:09.710Z,43.39
2019-05-06T20:37:36.483Z,43.83
2019-05-06T20:40:05.654Z,43.45
2019-05-06T20:42:32.812Z,43.86
2019-05-06T20:45:01.958Z,43.85
2019-05-06T20:47:31.510Z,44.09
2019-05-06T20:49:59.087Z,44.31
2019-05-06T20:52:26.226Z,44.26
2019-05-06T20:54:55.010Z,44.55
2019-05-06T20:57:23.083Z,44.54
2019-05-06T20:59:52.600Z,44.95
2019-05-06T21:02:25.027Z,45.54
2019-05-06T21:04:48.677Z,45.27
2019-05-06T21:07:15.886Z,45.25
2019-05-06T21:09:43.404Z,45.00
2019-05-06T21:12:10.781Z,45.13
2019-05-06T21:14:38.050Z,44.97
2019-05-06T21:17:05.105Z,44.96
2019-05-06T21:19:33.351Z,45.43
2019-05-06T21:22:02.201Z,45.27
2019-05-06T21:24:28.846Z,45.96
2019-05-06T21:26:55.992Z,45.61
2019-05-06T21:29:23.421Z,45.99
2019-05-06T21:31:50.391Z,46.23
2019-05-06T21:34:18.227Z,46.50
2019-05-06T21:36:45.080Z,46.78
2019-05-06T21:39:13.030Z,46.83
2019-05-06T21:41:42.482Z,46.78
2019-05-06T21:44:09.218Z,46.57
2019-05-06T21:46:36.438Z,46.40
2019-05-06T21:49:03.495Z,46.52
2019-05-06T21:51:32.727Z,46.63
2019-05-06T21:54:00.829Z,46.95
2019-05-06T21:56:31.925Z,47.26
2019-05-06T21:58:58.844Z,47.30
2019-05-06T22:01:26.115Z,47.67
2019-05-06T22:03:52.914Z,47.41
2019-05-06T22:06:22.429Z,47.34
2019-05-06T22:08:49.233Z,47.66
2019-05-06T22:11:16.086Z,47.66
2019-05-06T22:13:56.900Z,48.09
2019-05-06T22:16:12.633Z,48.43
2019-05-06T22:18:39.649Z,48.52
2019-05-06T22:21:23.379Z,49.11
2019-05-06T22:23:58.202Z,49.37
2019-05-06T22:26:25.388Z,49.78
2019-05-06T22:28:52.812Z,50.25
2019-05-06T22:31:23.903Z,50.41
2019-05-06T22:33:48.439Z,50.71
2019-05-06T22:36:15.559Z,50.68
2019-05-06T22:38:44.285Z,50.94
2019-05-06T22:41:11.783Z,51.27
2019-05-06T22:43:38.848Z,51.66
2019-05-06T22:46:05.635Z,51.50
2019-05-06T22:48:32.585Z,51.80
2019-05-06T22:50:59.522Z,51.87
2019-05-06T22:53:26.981Z,52.11
2019-05-06T22:55:55.918Z,52.44
2019-05-06T22:58:22.874Z,52.67
2019-05-06T23:00:53.530Z,52.77
2019-05-06T23:03:32.079Z,52.81
2019-05-06T23:05:59.942Z,53.09
2019-05-06T23:08:26.924Z,53.83
2019-05-06T23:10:54.052Z,54.21
2019-05-06T23:13:22.948Z,53.91
2019-05-06T23:15:52.377Z,54.20
2019-05-06T23:18:19.367Z,54.22
2019-05-06T23:20:46.629Z,54.72
2019-05-06T23:23:13.734Z,55.07
2019-05-06T23:25:43.447Z,55.00
2019-05-06T23:28:09.251Z,55.08
2019-05-06T23:30:36.185Z,55.29
2019-05-06T23:33:03.325Z,55.52
2019-05-06T23:35:30.152Z,55.56
2019-05-06T23:38:15.323Z,55.31
2019-05-06T23:41:00.294Z,55.50
2019-05-06T23:43:45.215Z,55.85
2019-05-06T23:46:32.345Z,55.99
2019-05-06T23:49:17.446Z,56.25
2019-05-06T23:52:02.737Z,56.46
2019-05-06T23:54:47.602Z,56.57
2019-05-06T23:57:13.531Z,57.25
2019-05-06T23:59:42.966Z,57.70
